Hauptseite
METAR-TAF:

METAR-TAF

Flughäfen :

Flughafen Nakhon Ratchasima

Nakhon Ratchasima, Thailand

Breite: 14-56-58N, Länge: 102-18-45E, Höhe: 233 m

Beobachtung

Neuester Wetterbericht von vor 5 Stunden und 44 Minuten, um 14:00 UTC
Wind 2 kt aus West/Südwest
Temperatur 31°C
Luftfeuchtigkeit 55%
Luftdruck 1007 hPa
Sichtweite 10 km oder mehr
Leicht bewölkt in der Höhe von 3000 ft

METAR: VTUQ 181400Z 25002KT 9999 FEW030 31/21 Q1007 NOSIG

Zeit: 02:44 (19:44 UTC)

Prognose

Neuester Wetterbericht von vor 2 Stunden und 44 Minuten, um 17:00 UTC
Gültige Prognose vom 18 um 18 UTC bis 19 um 18 UTC
Wind 5 kt aus West
Sichtweite: 9000 m
Leicht bewölkt in der Höhe von 3000 ft

TAF: VTUQ 181700Z 1818/1918 27005KT 9000 FEW030

Wetterbeobachtungen und Prognosen von mehr als 4000 Flughäfen (METAR und TAF Bericht).

Die verfügbaren Stationen werden durch gelbe und rote Markierungen auf der Karte dargestellt.

Führen Sie die Maus auf sie, um den Namen der Station zu sehen.

Darauf klicken, um die Beobachtung von Wetterbeobachtungen und Prognosen zu sehen.

Um die Karte zu ändern : klicken Sie auf den grünen Tasten mit einem schwarzen Kreuz Zum Vergrößern, auf den grünen Button mit einem Gedankenstrich zu verkleinern, oder auf die grünen Pfeile für benachbarte Karten.


METAR-TAF: